Classifiche di sempre
Migliori tempi personali validi di team tra tutti gli eventi e le stagioni. Ogni team compare una sola volta per divisione.
Cerca per nome e apri la pagina in cui è classificato questo record di divisione.
139,649 team in classifica
| Pos. | Pos. AG | Team | Nazionalità | Categoria età | TempoMiglior tempo | Distacco |
|---|---|---|---|---|---|---|
| 128501 | #19416 | Olivia Watson & Meg OwenGBR · W 25-29 · AG #19416 | GBR | W 25-29 | 1:50:24 | +57:03 |
| 128502 | #17931 | Lisa Roe & Becky ReddochGBR · W 40-44 · AG #17931 | GBR | W 40-44 | 1:50:24 | +57:03 |
| 128503 | #19417 | Cinthya Ortiz & Anais Lemeteyer PerezMEX · W 25-29 · AG #19417 | MEX | W 25-29 | 1:50:24 | +57:03 |
| 128504 | #17932 | Manunya Muangkrajang & Kanokwan DumdenTHA · W 40-44 · AG #17932 | THA | W 40-44 | 1:50:24 | +57:03 |
| 128505 | #10650 | Karolina Banasiewicz & Paulina ZbrógPOL · W 16-24 · AG #10650 | POL | W 16-24 | 1:50:24 | +57:03 |
| 128506 | #10651 | Zoë Hovinga & Zoë HovingaNED · W 16-24 · AG #10651 | NED | W 16-24 | 1:50:25 | +57:04 |
| 128507 | #19418 | Sonia Pellielo & Desy Donega'ITA · W 25-29 · AG #19418 | ITA | W 25-29 | 1:50:25 | +57:04 |
| 128508 | #14010 | ROSE MANYOSA & AYANDA MKHIZERSA · W 35-39 · AG #14010 | RSA | W 35-39 | 1:50:25 | +57:04 |
| 128509 | #14011 | Lissa Magallanes & Edith JaimesUSA · W 35-39 · AG #14011 | USA | W 35-39 | 1:50:25 | +57:04 |
| 128510 | #14012 | Nikolett Matkovics & Vivien MolnárHUN · W 35-39 · AG #14012 | HUN | W 35-39 | 1:50:25 | +57:04 |
| 128511 | #10652 | Maxine Monoyer & Janelle TirlocqBEL · W 16-24 · AG #10652 | BEL | W 16-24 | 1:50:25 | +57:04 |
| 128512 | #14013 | Renee Tan & Janice WongAUS · W 35-39 · AG #14013 | AUS | W 35-39 | 1:50:25 | +57:04 |
| 128513 | -- | Evita Boenders & Lois BeenNED · W WU29 | NED | W WU29 | 1:50:25 | +57:04 |
| 128514 | #2875 | Fleur Gallagher & Jenny PercyGBR · W 50-54 · AG #2875 | GBR | W 50-54 | 1:50:25 | +57:04 |
| 128515 | #390 | Katie Peal & Ruth GoulsonGBR · W 40-49 · AG #390 | GBR | W 40-49 | 1:50:25 | +57:04 |
| 128516 | -- | Michelle PAPPERT & Brenna CHAVEZUSA · W WU29 | USA | W WU29 | 1:50:25 | +57:04 |
| 128517 | #40709 | Nara Joelma Fernandes Marques & Mónica Sofía Pimenta SeveroW 30-34 · AG #40709 | -- | W 30-34 | 1:50:25 | +57:04 |
| 128518 | #17933 | Laura Perogil & Jeanette AllendeW 40-44 · AG #17933 | -- | W 40-44 | 1:50:25 | +57:04 |
| 128519 | #40710 | Monica Aguirre & Karen GuzmánMEX · W 30-34 · AG #40710 | MEX | W 30-34 | 1:50:25 | +57:04 |
| 128520 | #14014 | Ashley Timo & Maggie McMillanUSA · W 35-39 · AG #14014 | USA | W 35-39 | 1:50:25 | +57:04 |
| 128521 | #14015 | Louise Mccaffery & Lynne CooperGBR · W 35-39 · AG #14015 | GBR | W 35-39 | 1:50:25 | +57:04 |
| 128522 | #40711 | Josephine Chu & Agnes SoNED · W 30-34 · AG #40711 | NED | W 30-34 | 1:50:25 | +57:04 |
| 128523 | #19419 | Michelle Pušnik & Paula HellerGER · W 25-29 · AG #19419 | GER | W 25-29 | 1:50:25 | +57:04 |
| 128524 | #40712 | Agnes So & Josephine ChuNED · W 30-34 · AG #40712 | NED | W 30-34 | 1:50:25 | +57:04 |
| 128525 | #40713 | Si Yan Choy & Yung Yue ChanHKG · W 30-34 · AG #40713 | HKG | W 30-34 | 1:50:25 | +57:04 |
Pagina 5,141 di 5,586